Latest Weather Observations for Shay Gap

IDW60801

Issued at 1:35 pm WST Thursday 24 April 2014 (issued every 30 minutes, with the page automatically refreshed every 10 minutes)

About weather observations | Map of weather stations | Latest weather observations for WA | Other Formats
Station Details ID: 504045 Name: SHAY GAP Lat: -20.43 Lon: 120.13 Height: 173.83 m
Data from the previous 72 hours. | See also: Recent months for locations in Western Australia
Date/Time
WST
Temp
°C
App
Temp
°C
Dew
Point
Rel
Hum
%
Delta-T
°C
Wind Press
QNH
hPa
Press
MSL
hPa
Rain
since 9 am
mm
Dir
 
Spd
km/h
Gust
km/h
Spd
kts
Gust
kts
24/01:30pm 36.4 31.9 2.4 12 17.8 N 15 24 8 13 1009.2 - 0.0
24/01:00pm 36.7 31.0 2.7 12 17.9 NE 22 35 12 19 1009.5 1008.4 0.0
24/12:30pm 36.0 30.4 3.3 13 17.3 N 22 32 12 17 1009.9 - 0.0
24/12:00pm 36.4 29.7 3.6 13 17.4 NNE 28 32 15 17 1010.4 1009.3 0.0
24/11:30am 35.8 30.3 4.2 14 16.9 NE 22 30 12 16 1011.0 - 0.0
24/11:00am 35.5 30.2 4.9 15 16.5 NE 22 28 12 15 1011.6 1010.4 0.0
24/10:30am 34.4 28.9 4.0 15 16.1 NE 22 32 12 17 1012.1 - 0.0
24/10:00am 33.4 27.7 5.0 17 15.2 NE 24 30 13 16 1012.4 1011.2 0.0
24/09:30am 32.2 26.7 4.1 17 14.7 ENE 22 30 12 16 1012.5 - 0.0
24/09:00am 30.6 26.8 5.8 21 13.2 E 15 17 8 9 1012.4 1011.2 0.0
24/08:30am 28.4 25.0 5.9 24 11.9 ESE 13 19 7 10 1012.2 - 0.0
24/08:00am 26.5 23.8 5.5 26 10.9 ESE 9 13 5 7 1012.1 1010.9 0.0
24/07:30am 24.6 21.4 6.8 32 9.3 SE 13 15 7 8 1011.7 - 0.0
24/07:00am 23.5 20.8 7.2 35 8.6 SE 11 11 6 6 1011.6 1010.4 0.0
24/06:30am 22.0 20.2 7.8 40 7.5 ESE 7 9 4 5 1011.3 - 0.0
24/06:00am 22.4 20.5 9.2 43 7.1 ESE 9 11 5 6 1011.2 1010.0 0.0
24/05:30am 21.4 19.1 10.6 50 6.0 SSE 13 13 7 7 1011.2 - 0.0
24/05:00am 21.5 19.3 10.9 51 5.9 SE 13 15 7 8 1010.9 1009.7 0.0
24/04:30am 21.6 20.0 11.6 53 5.6 SSE 11 13 6 7 1010.8 - 0.0
24/04:00am 21.4 19.8 11.7 54 5.5 SSE 11 13 6 7 1010.8 1009.6 0.0
24/03:30am 23.1 21.6 11.8 49 6.4 SSE 11 13 6 7 1010.9 - 0.0
24/03:00am 22.3 20.8 12.0 52 5.9 SSE 11 11 6 6 1010.8 1009.6 0.0
24/02:30am 22.6 21.1 12.0 51 6.0 SSE 11 13 6 7 1010.9 - 0.0
24/02:00am 22.1 20.4 12.4 54 5.5 SSE 13 15 7 8 1011.1 1009.9 0.0
24/01:30am 23.8 22.7 11.8 47 6.8 SSE 9 11 5 6 1011.4 - 0.0
24/01:00am 24.6 23.7 12.5 46 7.0 SSE 9 9 5 5 1011.4 1010.2 0.0
24/12:30am 24.6 24.0 13.5 50 6.5 S 9 11 5 6 1011.7 - 0.0
24/12:00am 25.8 25.0 13.0 45 7.5 SSW 9 11 5 6 1012.0 1010.8 0.0
 
Date/Time
WST
Temp
°C
App
Temp
°C
Dew
Point
Rel
Hum
%
Delta-T
°C
Wind Press
QNH
hPa
Press
MSL
hPa
Rain
since 9 am
mm
Dir
 
Spd
km/h
Gust
km/h
Spd
kts
Gust
kts
23/11:30pm 25.1 25.3 14.6 52 6.3 SW 7 11 4 6 1012.1 - 0.0
23/11:00pm 25.2 24.2 14.6 51 6.4 SW 13 15 7 8 1012.3 1011.1 0.0
23/10:30pm 25.2 24.1 14.3 50 6.5 WSW 13 15 7 8 1012.5 - 0.0
23/10:00pm 25.3 23.5 12.2 44 7.6 S 13 15 7 8 1012.6 1011.4 0.0
23/09:30pm 24.7 23.9 13.0 48 6.8 WSW 9 11 5 6 1012.6 - 0.0
23/09:00pm 25.7 24.7 13.5 46 7.2 W 11 11 6 6 1012.6 1011.4 0.0
23/08:30pm 26.3 25.2 12.0 41 8.3 NNW 9 9 5 5 1012.6 - 0.0
23/08:00pm 26.2 25.4 11.2 39 8.6 NNW 6 7 3 4 1012.3 1011.1 0.0
23/07:30pm 27.2 25.8 10.8 36 9.3 N 9 9 5 5 1012.0 - 0.0
23/07:00pm 28.0 26.5 10.7 34 9.9 NW 9 11 5 6 1011.7 1010.5 0.0
23/06:30pm 29.3 27.2 9.9 30 11.0 NNW 11 13 6 7 1011.4 - 0.0
23/06:00pm 30.8 28.5 9.1 26 12.2 NNW 11 15 6 8 1011.0 1009.8 0.0
23/05:30pm 33.1 29.6 7.1 20 14.3 NNW 15 20 8 11 1010.3 - 0.0
23/05:00pm 34.7 30.0 6.1 17 15.7 NNW 20 28 11 15 1009.9 1008.8 0.0
23/04:30pm 35.7 31.9 6.0 16 16.3 NNW 15 24 8 13 1009.5 - 0.0
23/04:00pm 36.2 32.3 5.5 15 16.8 NE 15 24 8 13 1009.4 1008.3 0.0
23/03:30pm 36.5 31.1 1.3 11 18.0 ESE 19 22 10 12 1009.1 - 0.0
23/03:00pm 36.5 33.0 1.3 11 18.1 E 9 17 5 9 1009.4 1008.3 0.0
23/02:30pm 36.6 32.4 1.4 11 18.1 E 13 17 7 9 1009.4 - 0.0
23/02:00pm 36.5 32.2 1.3 11 18.1 ENE 13 28 7 15 1009.6 1008.5 0.0
23/01:30pm 36.4 32.1 1.2 11 18.0 NNW 13 19 7 10 1010.0 - 0.0
23/01:00pm 36.2 31.0 2.3 12 17.6 ENE 19 24 10 13 1010.5 1009.4 0.0
23/12:30pm 36.4 30.8 1.2 11 18.0 NE 20 32 11 17 1011.0 - 0.0
23/12:00pm 35.5 29.4 2.9 13 17.1 NE 24 35 13 19 1011.6 1010.4 0.0
23/11:30am 35.4 29.5 3.8 14 16.7 NE 24 33 13 18 1012.0 - 0.0
23/11:00am 35.2 28.9 3.7 14 16.7 NE 26 35 14 19 1012.7 1011.5 0.0
23/10:30am 34.1 27.0 3.8 15 15.9 NE 30 37 16 20 1013.2 - 0.0
23/10:00am 33.6 27.4 4.3 16 15.5 NE 26 35 14 19 1013.5 1012.3 0.0
23/09:30am 31.7 26.3 4.5 18 14.3 ENE 22 30 12 16 1013.6 - 0.0
23/09:00am 30.6 25.7 5.1 20 13.4 E 20 28 11 15 1013.7 1012.5 0.0
23/08:30am 27.5 23.8 6.3 26 11.2 ESE 15 19 8 10 1013.8 - 0.0
23/08:00am 25.3 22.1 7.0 31 9.7 SSE 13 15 7 8 1013.8 1012.6 0.0
23/07:30am 23.8 20.3 7.4 35 8.6 SSE 15 19 8 10 1013.6 - 0.0
23/07:00am 22.2 18.7 8.7 42 7.2 SE 17 20 9 11 1013.2 1012.0 0.0
23/06:30am 20.2 17.7 11.1 56 5.0 SSE 15 17 8 9 1013.1 - 0.0
23/06:00am 19.8 17.3 12.3 62 4.2 SSE 17 19 9 10 1012.9 1011.7 0.0
23/05:30am 20.4 19.1 12.6 61 4.4 SSE 11 13 6 7 1012.4 - 0.0
23/05:00am 21.9 20.3 12.7 56 5.3 SSE 13 15 7 8 1012.4 1011.2 0.0
23/04:30am 21.6 20.1 13.2 59 4.9 SSE 13 17 7 9 1012.4 - 0.0
23/04:00am 21.8 20.4 13.4 59 4.9 S 13 15 7 8 1012.3 1011.1 0.0
23/03:30am 22.1 21.1 13.5 58 5.0 SSW 11 13 6 7 1012.3 - 0.0
23/03:00am 23.1 22.6 13.8 55 5.5 S 9 13 5 7 1012.3 1011.1 0.0
23/02:30am 23.5 23.3 14.8 58 5.2 SSW 9 9 5 5 1012.4 - 0.0
23/02:00am 23.5 23.5 15.3 60 4.9 SW 9 13 5 7 1012.6 1011.4 0.0
23/01:30am 23.7 23.6 14.9 57 5.3 SW 9 11 5 6 1012.9 - 0.0
23/01:00am 23.9 24.2 15.1 58 5.3 SW 7 9 4 5 1013.3 1012.1 0.0
23/12:30am 23.6 23.5 14.9 58 5.2 SW 9 9 5 5 1013.6 - 0.0
23/12:00am 24.5 24.7 14.3 53 6.1 SW 6 7 3 4 1013.8 1012.6 0.0
 
Date/Time
WST
Temp
°C
App
Temp
°C
Dew
Point
Rel
Hum
%
Delta-T
°C
Wind Press
QNH
hPa
Press
MSL
hPa
Rain
since 9 am
mm
Dir
 
Spd
km/h
Gust
km/h
Spd
kts
Gust
kts
22/11:30pm 24.2 23.0 14.0 53 6.0 WSW 13 15 7 8 1013.8 - 0.0
22/11:00pm 24.3 22.4 11.9 45 7.1 W 13 15 7 8 1013.9 1012.7 0.0
22/10:30pm 25.2 22.7 11.0 41 8.0 W 15 17 8 9 1013.9 - 0.0
22/10:00pm 25.5 23.4 11.3 41 8.1 W 13 13 7 7 1014.0 1012.8 0.0
22/09:30pm 25.6 24.2 12.1 43 7.8 W 11 11 6 6 1013.8 - 0.0
22/09:00pm 25.7 24.1 12.9 45 7.5 W 13 15 7 8 1013.7 1012.5 0.0
22/08:30pm 26.2 25.4 13.0 44 7.8 WNW 9 13 5 7 1013.4 - 0.0
22/08:00pm 26.7 26.0 13.1 43 8.0 NW 9 13 5 7 1013.2 1012.0 0.0
22/07:30pm 27.5 26.4 11.9 38 9.1 NW 9 11 5 6 1012.9 - 0.0
22/07:00pm 28.2 26.8 10.9 34 9.9 NW 9 13 5 7 1012.6 1011.4 0.0
22/06:30pm 29.5 26.7 8.5 27 11.6 NW 13 15 7 8 1012.3 - 0.0
22/06:00pm 31.0 27.6 6.1 21 13.4 NW 13 17 7 9 1012.0 1010.8 0.0
22/05:30pm 33.1 28.9 5.6 18 14.8 NNW 17 20 9 11 1011.7 - 0.0
22/05:00pm 35.7 31.2 -0.6 10 18.0 SSE 13 19 7 10 1011.2 1010.0 0.0
22/04:30pm 36.5 32.8 0.0 10 18.3 S 9 13 5 7 1011.0 - 0.0
22/04:00pm 36.2 31.5 1.1 11 17.9 SE 15 24 8 13 1010.9 1009.7 0.0
22/03:30pm 36.5 33.0 1.3 11 18.0 ESE 9 20 5 11 1010.8 - 0.0
22/03:00pm 36.4 32.5 1.2 11 18.0 SSE 11 17 6 9 1010.8 1009.6 0.0
22/02:30pm 36.8 33.9 1.5 11 18.2 NNW 6 9 3 5 1011.0 - 0.0
22/02:00pm 36.7 32.1 1.5 11 18.1 SE 15 26 8 14 1011.2 1010.0 0.0
22/01:30pm 36.6 33.3 2.6 12 17.8 E 9 17 5 9 1011.4 - 0.0
22/01:00pm 35.9 30.6 2.1 12 17.5 SSE 19 22 10 12 1011.6 1010.4 0.0
22/12:30pm 35.6 30.7 1.8 12 17.4 ENE 17 26 9 14 1012.1 - 0.0
22/12:00pm 35.3 31.3 2.7 13 17.0 ESE 13 19 7 10 1012.5 1011.3 0.0
22/11:30am 34.9 31.4 3.5 14 16.5 SSE 11 17 6 9 1013.0 - 0.0
22/11:00am 33.9 30.8 3.6 15 15.9 SSE 9 17 5 9 1013.4 1012.2 0.0
22/10:30am 33.7 31.1 6.1 18 15.0 SE 9 15 5 8 1013.8 - 0.0
22/10:00am 32.4 29.6 8.6 23 13.4 SSE 13 19 7 10 1014.2 1013.1 0.0
22/09:30am 31.1 28.1 9.3 26 12.3 SSE 15 19 8 10 1014.3 - 0.0
22/09:00am 29.4 27.0 11.5 33 10.4 SSE 15 19 8 10 1014.6 1013.5 0.0
22/08:30am 27.8 25.6 12.2 38 9.1 SSE 15 19 8 10 1014.7 - 0.0
22/08:00am 25.7 25.4 14.5 50 6.7 SSE 9 11 5 6 1014.5 1013.4 0.0
22/07:30am 23.8 23.7 16.1 62 4.7 SSE 11 13 6 7 1014.3 - 0.0
22/07:00am 21.7 21.5 15.8 69 3.6 SE 11 13 6 7 1014.1 1012.9 0.0
22/06:30am 21.0 20.8 15.8 72 3.1 SSE 11 13 6 7 1013.7 - 0.0
22/06:00am 21.2 21.2 16.2 73 3.0 SSE 11 11 6 6 1013.4 1012.2 0.0
22/05:30am 21.2 21.1 16.0 72 3.1 SSE 11 13 6 7 1013.2 - 0.0
22/05:00am 21.0 20.6 15.1 69 3.5 SSE 11 13 6 7 1013.0 1011.8 0.0
22/04:30am 21.9 21.6 15.5 67 3.8 S 11 13 6 7 1012.8 - 0.0
22/04:00am 23.1 22.9 15.7 63 4.5 SW 11 13 6 7 1012.8 1011.6 0.0
22/03:30am 23.3 22.5 16.1 64 4.4 SW 15 19 8 10 1012.8 - 0.0
22/03:00am 22.7 23.7 16.9 70 3.6 SW 7 11 4 6 1012.6 1011.4 0.0
22/02:30am 22.8 22.2 14.6 60 4.9 SW 11 13 6 7 1012.6 - 0.0
22/02:00am 23.1 22.5 13.6 55 5.6 SSW 9 9 5 5 1012.7 1011.5 0.0
22/01:30am 22.3 21.7 14.7 62 4.5 WSW 11 11 6 6 1012.9 - 0.0
22/01:00am 23.1 22.1 15.7 63 4.5 WSW 15 17 8 9 1013.1 1011.9 0.0
22/12:30am 23.6 22.4 15.1 59 5.1 WSW 15 17 8 9 1013.4 - 0.0
22/12:00am 23.2 22.5 15.3 61 4.8 W 13 13 7 7 1013.9 1012.7 0.0
 
Date/Time
WST
Temp
°C
App
Temp
°C
Dew
Point
Rel
Hum
%
Delta-T
°C
Wind Press
QNH
hPa
Press
MSL
hPa
Rain
since 9 am
mm
Dir
 
Spd
km/h
Gust
km/h
Spd
kts
Gust
kts
21/11:30pm 23.4 23.2 16.7 66 4.1 W 13 13 7 7 1014.1 - 0.0
21/11:00pm 23.6 23.5 16.1 62 4.6 W 11 13 6 7 1014.1 1012.9 0.0
21/10:30pm 23.8 23.6 15.6 60 5.0 W 11 15 6 8 1014.2 - 0.0
21/10:00pm 25.1 25.8 16.0 57 5.6 WNW 7 9 4 5 1014.0 1012.8 0.0
21/09:30pm 25.1 25.5 16.3 58 5.4 WNW 9 11 5 6 1013.9 - 0.0
21/09:00pm 24.9 24.2 15.5 56 5.7 W 13 13 7 7 1013.8 1012.6 0.0
21/08:30pm 25.0 24.0 13.5 48 6.8 WNW 11 11 6 6 1013.7 - 0.0
21/08:00pm 26.4 25.7 12.1 41 8.3 NW 7 9 4 5 1013.6 1012.4 0.0
21/07:30pm 26.7 25.0 10.0 35 9.4 NW 9 13 5 7 1013.2 - 0.0
21/07:00pm 28.5 25.5 9.2 30 10.8 WNW 15 20 8 11 1012.7 1011.5 0.0
21/06:30pm 29.3 26.5 8.4 27 11.6 NW 13 15 7 8 1012.5 - 0.0
21/06:00pm 31.1 26.8 6.9 22 13.2 NW 19 22 10 12 1012.1 1010.9 0.0
21/05:30pm 33.2 29.0 5.7 18 14.8 NNW 17 24 9 13 1011.7 - 0.0
21/05:00pm 35.5 32.7 2.9 13 17.1 NNE 7 9 4 5 1011.3 1010.1 0.0
21/04:30pm 35.5 32.8 2.9 13 17.0 ENE 6 13 3 7 1011.1 - 0.0
21/04:00pm 35.7 32.5 3.0 13 17.2 NNE 9 17 5 9 1011.0 1009.8 0.0
21/03:30pm 35.5 32.5 1.8 12 17.3 E 7 13 4 7 1011.0 - 0.0
21/03:00pm 35.5 31.9 2.9 13 17.1 E 11 20 6 11 1011.0 1009.8 0.0
21/02:30pm 35.7 31.9 4.1 14 16.9 ESE 13 26 7 14 1011.1 - 0.0
21/02:00pm 35.3 30.9 2.7 13 17.0 ENE 15 24 8 13 1011.1 1009.9 0.0

Other Formats:

Comma delimited format used in spreadsheet applications
http://www.bom.gov.au/fwo/IDW60801/IDW60801.99311.axf

JavaScript Object Notation format (JSON) in row-major order
http://www.bom.gov.au/fwo/IDW60801/IDW60801.99311.json